sensor_id;sensor_type;location;lat;lon;timestamp;pressure;altitude;pressure_sealevel;temperature;humidity
56400;BME280;42298;53.638;9.876;2023-06-10T00:02:03;101704.47;;;17.15;73.57
56400;BME280;42298;53.638;9.876;2023-06-10T00:04:29;101719.88;;;17.13;73.25
56400;BME280;42298;53.638;9.876;2023-06-10T00:06:54;101699.94;;;16.94;73.00
56400;BME280;42298;53.638;9.876;2023-06-10T00:09:20;101714.81;;;16.98;72.89
56400;BME280;42298;53.638;9.876;2023-06-10T00:11:46;101715.66;;;16.98;72.50
56400;BME280;42298;53.638;9.876;2023-06-10T00:14:12;101725.47;;;17.04;72.24
56400;BME280;42298;53.638;9.876;2023-06-10T00:16:38;101725.13;;;16.97;72.07
56400;BME280;42298;53.638;9.876;2023-06-10T00:19:04;101695.84;;;16.83;71.67
56400;BME280;42298;53.638;9.876;2023-06-10T00:21:34;101714.19;;;16.92;71.13
56400;BME280;42298;53.638;9.876;2023-06-10T00:24:06;101719.41;;;16.94;71.24
56400;BME280;42298;53.638;9.876;2023-06-10T00:26:35;101720.88;;;16.91;70.96
56400;BME280;42298;53.638;9.876;2023-06-10T00:29:00;101711.06;;;16.85;70.75
56400;BME280;42298;53.638;9.876;2023-06-10T00:31:26;101704.84;;;16.80;70.91
56400;BME280;42298;53.638;9.876;2023-06-10T00:33:51;101714.19;;;16.75;70.83
56400;BME280;42298;53.638;9.876;2023-06-10T00:36:19;101716.47;;;16.73;70.82
56400;BME280;42298;53.638;9.876;2023-06-10T00:38:44;101711.88;;;16.69;70.51
56400;BME280;42298;53.638;9.876;2023-06-10T00:41:10;101712.19;;;16.67;70.30
56400;BME280;42298;53.638;9.876;2023-06-10T00:43:35;101716.63;;;16.68;70.17
56400;BME280;42298;53.638;9.876;2023-06-10T00:46:00;101718.09;;;16.66;69.94
56400;BME280;42298;53.638;9.876;2023-06-10T00:48:27;101709.25;;;16.55;70.23
56400;BME280;42298;53.638;9.876;2023-06-10T00:50:52;101717.59;;;16.55;69.65
56400;BME280;42298;53.638;9.876;2023-06-10T00:53:18;101706.28;;;16.43;69.62
56400;BME280;42298;53.638;9.876;2023-06-10T00:55:44;101700.56;;;16.40;69.79
56400;BME280;42298;53.638;9.876;2023-06-10T00:58:10;101710.09;;;16.47;69.61
56400;BME280;42298;53.638;9.876;2023-06-10T01:00:36;101723.66;;;16.49;69.35
56400;BME280;42298;53.638;9.876;2023-06-10T01:03:02;101722.00;;;16.48;69.51
56400;BME280;42298;53.638;9.876;2023-06-10T01:05:27;101725.09;;;16.46;69.49
56400;BME280;42298;53.638;9.876;2023-06-10T01:10:38;101714.97;;;16.42;68.96
56400;BME280;42298;53.638;9.876;2023-06-10T01:13:07;101712.97;;;16.42;69.50
56400;BME280;42298;53.638;9.876;2023-06-10T01:15:37;101707.41;;;16.34;69.35
56400;BME280;42298;53.638;9.876;2023-06-10T01:18:08;101713.81;;;16.34;69.26
56400;BME280;42298;53.638;9.876;2023-06-10T01:20:36;101720.16;;;16.35;69.24
56400;BME280;42298;53.638;9.876;2023-06-10T01:23:05;101715.91;;;16.29;69.78
56400;BME280;42298;53.638;9.876;2023-06-10T01:25:31;101706.06;;;16.14;69.37
56400;BME280;42298;53.638;9.876;2023-06-10T01:28:34;101713.25;;;16.15;69.82
56400;BME280;42298;53.638;9.876;2023-06-10T01:31:16;101730.44;;;16.26;69.46
56400;BME280;42298;53.638;9.876;2023-06-10T01:33:47;101726.03;;;16.16;69.64
56400;BME280;42298;53.638;9.876;2023-06-10T01:36:15;101733.88;;;16.23;69.37
56400;BME280;42298;53.638;9.876;2023-06-10T01:38:44;101698.19;;;15.99;69.51
56400;BME280;42298;53.638;9.876;2023-06-10T01:41:13;101729.28;;;16.18;69.42
56400;BME280;42298;53.638;9.876;2023-06-10T01:43:39;101717.31;;;16.01;69.07
56400;BME280;42298;53.638;9.876;2023-06-10T01:46:04;101742.19;;;16.06;70.09
56400;BME280;42298;53.638;9.876;2023-06-10T01:48:30;101730.69;;;15.99;69.86
56400;BME280;42298;53.638;9.876;2023-06-10T01:50:55;101728.41;;;15.92;69.62
56400;BME280;42298;53.638;9.876;2023-06-10T01:53:22;101735.09;;;15.91;69.85
56400;BME280;42298;53.638;9.876;2023-06-10T01:55:47;101742.97;;;15.98;69.35
56400;BME280;42298;53.638;9.876;2023-06-10T01:58:13;101729.72;;;15.95;69.88
56400;BME280;42298;53.638;9.876;2023-06-10T02:00:38;101708.09;;;15.83;69.74
56400;BME280;42298;53.638;9.876;2023-06-10T02:03:03;101714.97;;;15.86;69.53
56400;BME280;42298;53.638;9.876;2023-06-10T02:05:29;101706.44;;;15.74;69.73
56400;BME280;42298;53.638;9.876;2023-06-10T02:07:55;101724.47;;;15.85;69.72
56400;BME280;42298;53.638;9.876;2023-06-10T02:10:20;101708.53;;;15.68;69.47
56400;BME280;42298;53.638;9.876;2023-06-10T02:12:46;101699.38;;;15.68;69.62
56400;BME280;42298;53.638;9.876;2023-06-10T02:15:11;101718.59;;;15.86;69.65
56400;BME280;42298;53.638;9.876;2023-06-10T02:17:36;101721.69;;;15.85;69.47
56400;BME280;42298;53.638;9.876;2023-06-10T02:20:03;101701.66;;;15.66;69.82
56400;BME280;42298;53.638;9.876;2023-06-10T02:22:29;101707.25;;;15.74;69.60
56400;BME280;42298;53.638;9.876;2023-06-10T02:24:55;101706.88;;;15.67;69.49
56400;BME280;42298;53.638;9.876;2023-06-10T02:27:20;101705.75;;;15.68;69.53
56400;BME280;42298;53.638;9.876;2023-06-10T02:29:45;101713.81;;;15.78;69.18
56400;BME280;42298;53.638;9.876;2023-06-10T02:32:10;101720.19;;;15.79;69.26
56400;BME280;42298;53.638;9.876;2023-06-10T02:34:36;101707.16;;;15.57;69.25
56400;BME280;42298;53.638;9.876;2023-06-10T02:37:02;101728.84;;;15.77;69.78
56400;BME280;42298;53.638;9.876;2023-06-10T02:39:28;101718.47;;;15.61;69.64
56400;BME280;42298;53.638;9.876;2023-06-10T02:41:53;101729.47;;;15.74;69.72
56400;BME280;42298;53.638;9.876;2023-06-10T02:44:20;101735.66;;;15.71;69.64
56400;BME280;42298;53.638;9.876;2023-06-10T02:46:45;101739.88;;;15.69;69.75
56400;BME280;42298;53.638;9.876;2023-06-10T02:49:12;101737.94;;;15.69;69.79
56400;BME280;42298;53.638;9.876;2023-06-10T02:51:38;101714.34;;;15.58;69.97
56400;BME280;42298;53.638;9.876;2023-06-10T02:54:07;101740.22;;;15.67;69.96
56400;BME280;42298;53.638;9.876;2023-06-10T02:56:32;101737.31;;;15.72;69.42
56400;BME280;42298;53.638;9.876;2023-06-10T02:58:58;101696.50;;;15.51;69.79
56400;BME280;42298;53.638;9.876;2023-06-10T03:01:24;101735.16;;;15.69;69.46
56400;BME280;42298;53.638;9.876;2023-06-10T03:03:50;101744.00;;;15.71;69.78
56400;BME280;42298;53.638;9.876;2023-06-10T03:06:15;101738.94;;;15.73;69.28
56400;BME280;42298;53.638;9.876;2023-06-10T03:08:41;101748.41;;;15.72;69.54
56400;BME280;42298;53.638;9.876;2023-06-10T03:16:13;101734.00;;;15.70;68.88
56400;BME280;42298;53.638;9.876;2023-06-10T03:18:38;101734.84;;;15.71;68.93
56400;BME280;42298;53.638;9.876;2023-06-10T03:21:03;101742.88;;;15.81;69.03
56400;BME280;42298;53.638;9.876;2023-06-10T03:23:30;101738.38;;;15.93;68.54
56400;BME280;42298;53.638;9.876;2023-06-10T03:25:55;101752.50;;;16.14;68.33
56400;BME280;42298;53.638;9.876;2023-06-10T03:28:21;101747.97;;;16.26;68.20
56400;BME280;42298;53.638;9.876;2023-06-10T03:30:47;101738.66;;;16.31;67.85
56400;BME280;42298;53.638;9.876;2023-06-10T03:33:14;101746.03;;;16.35;67.53
56400;BME280;42298;53.638;9.876;2023-06-10T03:35:45;101735.53;;;16.32;67.56
56400;BME280;42298;53.638;9.876;2023-06-10T03:38:10;101737.66;;;16.27;67.61
56400;BME280;42298;53.638;9.876;2023-06-10T03:40:36;101724.88;;;16.26;67.63
56400;BME280;42298;53.638;9.876;2023-06-10T03:43:01;101741.50;;;16.65;67.32
56400;BME280;42298;53.638;9.876;2023-06-10T03:45:26;101742.81;;;16.84;65.97
56400;BME280;42298;53.638;9.876;2023-06-10T03:47:53;101740.53;;;16.95;65.86
56400;BME280;42298;53.638;9.876;2023-06-10T03:50:18;101742.97;;;16.96;65.55
56400;BME280;42298;53.638;9.876;2023-06-10T03:52:44;101735.63;;;16.92;65.89
56400;BME280;42298;53.638;9.876;2023-06-10T03:55:10;101740.34;;;16.91;65.99
56400;BME280;42298;53.638;9.876;2023-06-10T03:57:38;101750.50;;;16.87;66.02
56400;BME280;42298;53.638;9.876;2023-06-10T04:00:03;101741.66;;;16.77;66.39
56400;BME280;42298;53.638;9.876;2023-06-10T04:02:33;101740.69;;;16.73;66.53
56400;BME280;42298;53.638;9.876;2023-06-10T04:04:59;101746.25;;;16.73;66.34
56400;BME280;42298;53.638;9.876;2023-06-10T04:07:25;101732.03;;;16.74;66.47
56400;BME280;42298;53.638;9.876;2023-06-10T04:09:50;101750.66;;;16.82;66.55
56400;BME280;42298;53.638;9.876;2023-06-10T04:12:15;101747.06;;;16.90;66.50
56400;BME280;42298;53.638;9.876;2023-06-10T04:14:41;101746.41;;;16.93;66.46
56400;BME280;42298;53.638;9.876;2023-06-10T04:17:07;101748.38;;;17.10;67.03
56400;BME280;42298;53.638;9.876;2023-06-10T04:19:32;101752.06;;;17.65;65.89
56400;BME280;42298;53.638;9.876;2023-06-10T04:22:00;101742.41;;;18.29;63.83
56400;BME280;42298;53.638;9.876;2023-06-10T04:24:26;101745.94;;;19.09;62.50
56400;BME280;42298;53.638;9.876;2023-06-10T04:26:51;101739.41;;;19.82;60.20
56400;BME280;42298;53.638;9.876;2023-06-10T04:29:16;101742.69;;;20.56;57.92
56400;BME280;42298;53.638;9.876;2023-06-10T04:31:42;101741.06;;;21.07;55.49
56400;BME280;42298;53.638;9.876;2023-06-10T04:34:07;101724.19;;;21.62;54.65
56400;BME280;42298;53.638;9.876;2023-06-10T04:36:34;101736.06;;;22.17;52.75
56400;BME280;42298;53.638;9.876;2023-06-10T04:38:59;101731.84;;;22.58;52.62
56400;BME280;42298;53.638;9.876;2023-06-10T04:41:25;101749.00;;;22.72;51.03
56400;BME280;42298;53.638;9.876;2023-06-10T04:43:51;101745.41;;;23.10;51.38
56400;BME280;42298;53.638;9.876;2023-06-10T04:46:16;101755.69;;;23.21;50.29
56400;BME280;42298;53.638;9.876;2023-06-10T04:48:42;101740.72;;;23.17;50.45
56400;BME280;42298;53.638;9.876;2023-06-10T04:51:07;101748.88;;;23.03;49.83
56400;BME280;42298;53.638;9.876;2023-06-10T04:53:32;101746.16;;;22.53;50.96
56400;BME280;42298;53.638;9.876;2023-06-10T04:55:58;101745.28;;;21.87;52.50
56400;BME280;42298;53.638;9.876;2023-06-10T04:58:24;101748.88;;;21.56;53.76
56400;BME280;42298;53.638;9.876;2023-06-10T05:00:50;101744.47;;;21.28;54.21
56400;BME280;42298;53.638;9.876;2023-06-10T05:03:15;101747.97;;;20.85;55.22
56400;BME280;42298;53.638;9.876;2023-06-10T05:05:41;101741.88;;;20.55;56.76
56400;BME280;42298;53.638;9.876;2023-06-10T05:08:06;101740.25;;;20.42;57.43
56400;BME280;42298;53.638;9.876;2023-06-10T05:10:33;101738.53;;;20.38;57.91
56400;BME280;42298;53.638;9.876;2023-06-10T05:12:59;101736.31;;;20.31;58.15
56400;BME280;42298;53.638;9.876;2023-06-10T05:15:24;101735.59;;;20.22;58.42
56400;BME280;42298;53.638;9.876;2023-06-10T05:17:50;101741.66;;;20.36;58.89
56400;BME280;42298;53.638;9.876;2023-06-10T05:20:15;101723.59;;;20.46;58.54
56400;BME280;42298;53.638;9.876;2023-06-10T05:22:41;101745.06;;;20.94;58.13
56400;BME280;42298;53.638;9.876;2023-06-10T05:25:06;101740.63;;;21.63;56.76
56400;BME280;42298;53.638;9.876;2023-06-10T05:27:32;101739.28;;;22.35;54.71
56400;BME280;42298;53.638;9.876;2023-06-10T05:29:57;101749.16;;;23.17;52.92
56400;BME280;42298;53.638;9.876;2023-06-10T05:32:23;101736.22;;;23.51;50.57
56400;BME280;42298;53.638;9.876;2023-06-10T05:34:48;101738.09;;;23.43;50.27
56400;BME280;42298;53.638;9.876;2023-06-10T05:37:13;101739.16;;;23.58;49.71
56400;BME280;42298;53.638;9.876;2023-06-10T05:39:39;101741.06;;;23.95;49.56
56400;BME280;42298;53.638;9.876;2023-06-10T05:42:07;101746.97;;;24.35;48.28
56400;BME280;42298;53.638;9.876;2023-06-10T05:44:33;101753.63;;;24.76;47.37
56400;BME280;42298;53.638;9.876;2023-06-10T05:46:58;101741.50;;;25.02;46.96
56400;BME280;42298;53.638;9.876;2023-06-10T05:49:23;101745.03;;;24.95;46.02
56400;BME280;42298;53.638;9.876;2023-06-10T05:51:50;101742.09;;;25.18;45.85
56400;BME280;42298;53.638;9.876;2023-06-10T05:54:17;101743.50;;;25.01;45.31
56400;BME280;42298;53.638;9.876;2023-06-10T05:56:43;101737.31;;;24.89;45.33
56400;BME280;42298;53.638;9.876;2023-06-10T05:59:08;101731.66;;;24.59;46.05
56400;BME280;42298;53.638;9.876;2023-06-10T06:01:33;101740.56;;;24.38;46.68
56400;BME280;42298;53.638;9.876;2023-06-10T06:03:59;101736.66;;;23.75;47.79
56400;BME280;42298;53.638;9.876;2023-06-10T06:06:24;101729.19;;;23.41;48.66
56400;BME280;42298;53.638;9.876;2023-06-10T06:08:50;101729.69;;;23.88;47.87
56400;BME280;42298;53.638;9.876;2023-06-10T06:11:15;101721.28;;;24.14;47.08
56400;BME280;42298;53.638;9.876;2023-06-10T06:13:40;101733.19;;;24.04;47.40
56400;BME280;42298;53.638;9.876;2023-06-10T06:16:07;101730.84;;;24.10;46.87
56400;BME280;42298;53.638;9.876;2023-06-10T06:18:32;101719.66;;;24.13;46.90
56400;BME280;42298;53.638;9.876;2023-06-10T06:20:57;101719.59;;;23.87;47.32
56400;BME280;42298;53.638;9.876;2023-06-10T06:23:23;101728.38;;;23.82;47.60
56400;BME280;42298;53.638;9.876;2023-06-10T06:25:48;101718.41;;;23.88;47.65
56400;BME280;42298;53.638;9.876;2023-06-10T06:28:13;101725.81;;;23.96;47.09
56400;BME280;42298;53.638;9.876;2023-06-10T06:30:38;101732.97;;;23.94;47.11
56400;BME280;42298;53.638;9.876;2023-06-10T06:33:04;101729.97;;;23.83;46.75
56400;BME280;42298;53.638;9.876;2023-06-10T06:35:33;101725.59;;;23.86;47.08
56400;BME280;42298;53.638;9.876;2023-06-10T06:37:59;101733.97;;;24.27;46.86
56400;BME280;42298;53.638;9.876;2023-06-10T06:40:24;101733.47;;;24.48;46.50
56400;BME280;42298;53.638;9.876;2023-06-10T06:42:50;101730.19;;;24.69;45.69
56400;BME280;42298;53.638;9.876;2023-06-10T06:45:15;101726.91;;;24.67;45.21
56400;BME280;42298;53.638;9.876;2023-06-10T06:47:41;101727.53;;;25.12;45.02
56400;BME280;42298;53.638;9.876;2023-06-10T06:50:06;101742.34;;;25.06;44.26
56400;BME280;42298;53.638;9.876;2023-06-10T06:52:32;101720.03;;;24.94;44.24
56400;BME280;42298;53.638;9.876;2023-06-10T06:54:57;101734.47;;;25.18;44.47
56400;BME280;42298;53.638;9.876;2023-06-10T06:57:22;101725.03;;;25.37;43.86
56400;BME280;42298;53.638;9.876;2023-06-10T06:59:48;101729.47;;;25.38;43.87
56400;BME280;42298;53.638;9.876;2023-06-10T07:02:13;101729.75;;;25.62;43.49
56400;BME280;42298;53.638;9.876;2023-06-10T07:04:39;101723.06;;;25.81;43.39
56400;BME280;42298;53.638;9.876;2023-06-10T07:07:07;101731.31;;;25.56;42.97
56400;BME280;42298;53.638;9.876;2023-06-10T07:09:34;101726.59;;;25.71;43.07
56400;BME280;42298;53.638;9.876;2023-06-10T07:11:59;101730.53;;;25.59;42.38
56400;BME280;42298;53.638;9.876;2023-06-10T07:14:24;101742.47;;;25.46;43.49
56400;BME280;42298;53.638;9.876;2023-06-10T07:16:50;101740.03;;;25.15;43.60
56400;BME280;42298;53.638;9.876;2023-06-10T07:19:15;101748.50;;;25.15;43.51
56400;BME280;42298;53.638;9.876;2023-06-10T07:21:40;101738.75;;;25.09;43.86
56400;BME280;42298;53.638;9.876;2023-06-10T07:24:06;101742.53;;;25.53;43.47
56400;BME280;42298;53.638;9.876;2023-06-10T07:26:32;101737.72;;;25.97;42.51
56400;BME280;42298;53.638;9.876;2023-06-10T07:28:57;101745.78;;;25.95;42.29
56400;BME280;42298;53.638;9.876;2023-06-10T07:31:23;101744.91;;;25.91;42.38
56400;BME280;42298;53.638;9.876;2023-06-10T07:33:48;101743.13;;;26.13;42.45
56400;BME280;42298;53.638;9.876;2023-06-10T07:36:13;101745.66;;;26.25;41.71
56400;BME280;42298;53.638;9.876;2023-06-10T07:38:39;101750.09;;;26.26;42.38
56400;BME280;42298;53.638;9.876;2023-06-10T07:41:04;101739.28;;;26.38;41.95
56400;BME280;42298;53.638;9.876;2023-06-10T07:43:29;101740.88;;;26.32;40.98
56400;BME280;42298;53.638;9.876;2023-06-10T07:45:56;101743.72;;;26.36;42.11
56400;BME280;42298;53.638;9.876;2023-06-10T07:48:21;101756.53;;;26.84;40.42
56400;BME280;42298;53.638;9.876;2023-06-10T07:50:46;101748.47;;;26.82;40.74
56400;BME280;42298;53.638;9.876;2023-06-10T07:53:12;101739.72;;;27.15;40.39
56400;BME280;42298;53.638;9.876;2023-06-10T07:55:38;101740.13;;;27.10;40.25
56400;BME280;42298;53.638;9.876;2023-06-10T07:58:03;101737.75;;;27.23;40.16
56400;BME280;42298;53.638;9.876;2023-06-10T08:00:29;101754.53;;;26.84;41.00
56400;BME280;42298;53.638;9.876;2023-06-10T08:02:54;101742.31;;;26.66;41.20
56400;BME280;42298;53.638;9.876;2023-06-10T08:05:20;101739.66;;;26.98;40.65
56400;BME280;42298;53.638;9.876;2023-06-10T08:07:46;101736.53;;;27.20;40.58
56400;BME280;42298;53.638;9.876;2023-06-10T08:10:11;101729.72;;;27.28;39.70
56400;BME280;42298;53.638;9.876;2023-06-10T08:12:36;101735.81;;;27.37;39.74
56400;BME280;42298;53.638;9.876;2023-06-10T08:15:04;101736.69;;;27.66;39.22
56400;BME280;42298;53.638;9.876;2023-06-10T08:17:32;101741.53;;;27.58;39.45
56400;BME280;42298;53.638;9.876;2023-06-10T08:19:57;101731.75;;;27.35;39.93
56400;BME280;42298;53.638;9.876;2023-06-10T08:22:23;101730.16;;;27.41;39.99
56400;BME280;42298;53.638;9.876;2023-06-10T08:24:48;101730.22;;;27.58;39.81
56400;BME280;42298;53.638;9.876;2023-06-10T08:27:13;101742.81;;;28.10;39.22
56400;BME280;42298;53.638;9.876;2023-06-10T08:29:40;101739.09;;;27.64;39.49
56400;BME280;42298;53.638;9.876;2023-06-10T08:32:06;101735.94;;;27.87;39.51
56400;BME280;42298;53.638;9.876;2023-06-10T08:34:34;101745.66;;;28.03;39.04
56400;BME280;42298;53.638;9.876;2023-06-10T08:37:01;101745.63;;;27.89;38.75
56400;BME280;42298;53.638;9.876;2023-06-10T08:39:32;101746.03;;;28.05;39.25
56400;BME280;42298;53.638;9.876;2023-06-10T08:44:32;101751.31;;;28.21;38.38
56400;BME280;42298;53.638;9.876;2023-06-10T08:47:00;101753.31;;;28.10;38.92
56400;BME280;42298;53.638;9.876;2023-06-10T08:49:26;101749.28;;;28.32;38.61
56400;BME280;42298;53.638;9.876;2023-06-10T08:51:58;101743.59;;;28.25;38.66
56400;BME280;42298;53.638;9.876;2023-06-10T08:54:31;101744.41;;;28.11;38.75
56400;BME280;42298;53.638;9.876;2023-06-10T08:56:59;101739.97;;;28.24;38.90
56400;BME280;42298;53.638;9.876;2023-06-10T08:59:25;101732.66;;;28.44;38.61
56400;BME280;42298;53.638;9.876;2023-06-10T09:01:53;101733.88;;;28.68;38.68
56400;BME280;42298;53.638;9.876;2023-06-10T09:04:19;101727.81;;;28.52;38.55
56400;BME280;42298;53.638;9.876;2023-06-10T09:06:46;101735.50;;;28.27;38.86
56400;BME280;42298;53.638;9.876;2023-06-10T09:09:14;101746.84;;;28.16;39.17
56400;BME280;42298;53.638;9.876;2023-06-10T09:11:42;101729.44;;;28.04;38.87
56400;BME280;42298;53.638;9.876;2023-06-10T09:14:07;101726.63;;;28.07;38.96
56400;BME280;42298;53.638;9.876;2023-06-10T09:16:34;101733.91;;;28.26;39.00
56400;BME280;42298;53.638;9.876;2023-06-10T09:19:00;101734.28;;;28.31;39.15
56400;BME280;42298;53.638;9.876;2023-06-10T09:21:25;101723.72;;;28.67;38.84
56400;BME280;42298;53.638;9.876;2023-06-10T09:23:52;101724.47;;;28.81;38.15
56400;BME280;42298;53.638;9.876;2023-06-10T09:26:18;101725.38;;;28.19;39.05
56400;BME280;42298;53.638;9.876;2023-06-10T09:28:49;101733.09;;;28.25;39.62
56400;BME280;42298;53.638;9.876;2023-06-10T09:31:18;101721.78;;;28.18;39.38
56400;BME280;42298;53.638;9.876;2023-06-10T09:33:47;101727.38;;;28.64;38.97
56400;BME280;42298;53.638;9.876;2023-06-10T09:36:21;101726.16;;;28.68;38.70
56400;BME280;42298;53.638;9.876;2023-06-10T09:38:49;101735.44;;;28.76;39.09
56400;BME280;42298;53.638;9.876;2023-06-10T09:41:14;101723.72;;;28.70;39.37
56400;BME280;42298;53.638;9.876;2023-06-10T09:43:42;101720.41;;;28.89;39.16
56400;BME280;42298;53.638;9.876;2023-06-10T09:46:18;101721.47;;;29.30;38.66
56400;BME280;42298;53.638;9.876;2023-06-10T09:48:46;101725.19;;;29.17;38.44
56400;BME280;42298;53.638;9.876;2023-06-10T09:51:15;101709.41;;;29.09;39.27
56400;BME280;42298;53.638;9.876;2023-06-10T09:53:42;101716.47;;;28.55;40.19
56400;BME280;42298;53.638;9.876;2023-06-10T09:56:07;101730.63;;;28.62;39.84
56400;BME280;42298;53.638;9.876;2023-06-10T09:58:36;101732.69;;;28.48;39.63
56400;BME280;42298;53.638;9.876;2023-06-10T10:01:08;101720.53;;;28.51;40.33
56400;BME280;42298;53.638;9.876;2023-06-10T10:03:43;101720.47;;;28.72;40.09
56400;BME280;42298;53.638;9.876;2023-06-10T10:06:09;101729.44;;;28.46;40.67
56400;BME280;42298;53.638;9.876;2023-06-10T10:08:36;101715.66;;;28.37;40.84
56400;BME280;42298;53.638;9.876;2023-06-10T10:11:03;101716.34;;;28.90;40.69
56400;BME280;42298;53.638;9.876;2023-06-10T10:13:28;101711.47;;;29.05;40.05
56400;BME280;42298;53.638;9.876;2023-06-10T10:15:59;101725.44;;;29.43;39.20
56400;BME280;42298;53.638;9.876;2023-06-10T10:18:29;101729.28;;;28.95;39.61
56400;BME280;42298;53.638;9.876;2023-06-10T10:20:57;101717.25;;;28.63;40.62
56400;BME280;42298;53.638;9.876;2023-06-10T10:23:29;101733.50;;;28.24;41.79
56400;BME280;42298;53.638;9.876;2023-06-10T10:25:57;101721.34;;;28.16;41.78
56400;BME280;42298;53.638;9.876;2023-06-10T10:28:29;101731.88;;;28.05;41.40
56400;BME280;42298;53.638;9.876;2023-06-10T10:31:02;101717.72;;;28.02;41.71
56400;BME280;42298;53.638;9.876;2023-06-10T10:33:45;101722.97;;;28.35;41.44
56400;BME280;42298;53.638;9.876;2023-06-10T10:36:14;101718.50;;;28.34;40.56
56400;BME280;42298;53.638;9.876;2023-06-10T10:38:41;101718.09;;;28.39;41.08
56400;BME280;42298;53.638;9.876;2023-06-10T10:41:07;101713.63;;;28.41;41.50
56400;BME280;42298;53.638;9.876;2023-06-10T10:43:33;101707.16;;;28.55;41.51
56400;BME280;42298;53.638;9.876;2023-06-10T10:46:03;101714.06;;;28.47;41.96
56400;BME280;42298;53.638;9.876;2023-06-10T10:48:38;101703.91;;;28.56;40.62
56400;BME280;42298;53.638;9.876;2023-06-10T10:51:03;101714.00;;;28.61;40.44
56400;BME280;42298;53.638;9.876;2023-06-10T10:53:29;101717.25;;;28.59;40.98
56400;BME280;42298;53.638;9.876;2023-06-10T10:56:08;101716.41;;;28.76;40.80
56400;BME280;42298;53.638;9.876;2023-06-10T10:58:37;101726.06;;;28.93;40.54
56400;BME280;42298;53.638;9.876;2023-06-10T11:01:13;101719.22;;;28.87;40.08
56400;BME280;42298;53.638;9.876;2023-06-10T11:03:43;101717.19;;;28.80;41.50
56400;BME280;42298;53.638;9.876;2023-06-10T11:06:14;101713.59;;;28.66;41.94
56400;BME280;42298;53.638;9.876;2023-06-10T11:11:25;101717.22;;;28.70;41.55
56400;BME280;42298;53.638;9.876;2023-06-10T11:14:26;101712.00;;;28.61;41.59
56400;BME280;42298;53.638;9.876;2023-06-10T11:16:56;101720.53;;;28.51;42.43
56400;BME280;42298;53.638;9.876;2023-06-10T11:19:33;101730.22;;;28.67;41.71
56400;BME280;42298;53.638;9.876;2023-06-10T11:22:01;101710.78;;;28.45;42.14
56400;BME280;42298;53.638;9.876;2023-06-10T11:24:28;101709.59;;;28.42;41.51
56400;BME280;42298;53.638;9.876;2023-06-10T11:26:54;101711.19;;;28.40;41.39
56400;BME280;42298;53.638;9.876;2023-06-10T11:29:19;101720.53;;;28.30;42.37
56400;BME280;42298;53.638;9.876;2023-06-10T11:31:49;101709.19;;;28.30;42.41
56400;BME280;42298;53.638;9.876;2023-06-10T11:34:23;101705.97;;;28.21;42.31
56400;BME280;42298;53.638;9.876;2023-06-10T11:36:51;101701.09;;;28.28;42.35
56400;BME280;42298;53.638;9.876;2023-06-10T11:39:18;101709.59;;;28.35;42.37
56400;BME280;42298;53.638;9.876;2023-06-10T11:41:45;101694.22;;;28.33;42.32
56400;BME280;42298;53.638;9.876;2023-06-10T11:44:12;101704.72;;;28.32;42.39
56400;BME280;42298;53.638;9.876;2023-06-10T11:46:39;101703.91;;;28.39;42.90
56400;BME280;42298;53.638;9.876;2023-06-10T11:49:05;101701.13;;;28.21;42.48
56400;BME280;42298;53.638;9.876;2023-06-10T11:51:38;101700.69;;;28.33;42.26
56400;BME280;42298;53.638;9.876;2023-06-10T11:54:06;101696.22;;;28.32;42.64
56400;BME280;42298;53.638;9.876;2023-06-10T11:56:33;101697.44;;;28.56;42.78
56400;BME280;42298;53.638;9.876;2023-06-10T11:59:18;101706.25;;;28.79;41.54
56400;BME280;42298;53.638;9.876;2023-06-10T12:01:51;101698.59;;;28.69;42.24
56400;BME280;42298;53.638;9.876;2023-06-10T12:04:17;101689.72;;;28.56;42.22
56400;BME280;42298;53.638;9.876;2023-06-10T12:06:50;101690.56;;;28.36;43.14
56400;BME280;42298;53.638;9.876;2023-06-10T12:09:26;101694.59;;;28.56;42.83
56400;BME280;42298;53.638;9.876;2023-06-10T12:11:58;101701.03;;;28.74;42.68
56400;BME280;42298;53.638;9.876;2023-06-10T12:14:56;101696.66;;;28.48;42.59
56400;BME280;42298;53.638;9.876;2023-06-10T12:19:57;101694.56;;;28.63;43.20
56400;BME280;42298;53.638;9.876;2023-06-10T12:22:23;101689.69;;;28.67;42.71
56400;BME280;42298;53.638;9.876;2023-06-10T12:25:02;101690.03;;;28.86;42.54
56400;BME280;42298;53.638;9.876;2023-06-10T12:27:31;101668.97;;;28.84;42.39
56400;BME280;42298;53.638;9.876;2023-06-10T12:29:58;101686.34;;;28.93;42.41
56400;BME280;42298;53.638;9.876;2023-06-10T12:32:55;101671.78;;;28.91;42.15
56400;BME280;42298;53.638;9.876;2023-06-10T12:35:22;101665.69;;;28.96;42.24
56400;BME280;42298;53.638;9.876;2023-06-10T12:38:03;101664.88;;;28.95;41.81
56400;BME280;42298;53.638;9.876;2023-06-10T12:40:37;101667.28;;;28.97;41.61
56400;BME280;42298;53.638;9.876;2023-06-10T12:43:04;101660.84;;;28.89;42.09
56400;BME280;42298;53.638;9.876;2023-06-10T12:45:34;101653.09;;;29.00;42.35
56400;BME280;42298;53.638;9.876;2023-06-10T12:48:19;101652.66;;;29.09;41.41
56400;BME280;42298;53.638;9.876;2023-06-10T12:50:50;101660.75;;;29.14;41.47
56400;BME280;42298;53.638;9.876;2023-06-10T12:53:16;101655.50;;;29.09;41.36
56400;BME280;42298;53.638;9.876;2023-06-10T12:55:41;101655.03;;;29.21;41.58
56400;BME280;42298;53.638;9.876;2023-06-10T12:58:06;101644.09;;;29.16;41.20
56400;BME280;42298;53.638;9.876;2023-06-10T13:00:32;101656.28;;;29.16;41.62
56400;BME280;42298;53.638;9.876;2023-06-10T13:03:01;101653.78;;;29.22;41.92
56400;BME280;42298;53.638;9.876;2023-06-10T13:05:28;101650.94;;;29.29;41.84
56400;BME280;42298;53.638;9.876;2023-06-10T13:07:54;101649.59;;;29.44;42.02